Time;durP1;ratioP1;P1;durP2;ratioP2;P2;SDS_P1;SDS_P2;PMS_P1;PMS_P2;Temp;Humidity;BMP_temperature;BMP_pressure;BME280_temperature;BME280_humidity;BME280_pressure;Samples;Min_cycle;Max_cycle;Signal;HPM_P1;HPM_P2
2023/03/17 00:00:13;;;;;;;16.25;4.30;;;;;;;7.41;80.71;100643.16;5072676;28;20033;-67
2023/03/17 00:02:41;;;;;;;16.02;4.63;;;;;;;7.36;82.81;100654.47;5072812;28;20111;-68
2023/03/17 00:05:22;;;;;;;16.58;4.70;;;;;;;7.38;81.19;100656.22;5073161;28;20431;-69
2023/03/17 00:07:49;;;;;;;15.85;4.57;;;;;;;7.36;82.07;100657.09;5072821;28;20040;-68
2023/03/17 00:10:24;;;;;;;16.65;4.90;;;;;;;7.36;82.51;100652.69;5072933;28;20056;-68
2023/03/17 00:12:52;;;;;;;15.07;4.40;;;;;;;7.34;80.54;100657.06;5073084;28;20027;-70
2023/03/17 00:15:19;;;;;;;16.85;4.72;;;;;;;7.30;85.48;100657.88;5072639;28;20036;-67
2023/03/17 00:17:46;;;;;;;15.43;4.78;;;;;;;7.17;85.75;100662.06;5072478;28;20071;-69
2023/03/17 00:20:31;;;;;;;18.20;4.80;;;;;;;7.07;88.71;100637.38;5072960;28;20021;-68
2023/03/17 00:23:04;;;;;;;15.45;4.70;;;;;;;6.96;91.18;100631.06;5069080;28;20044;-69
2023/03/17 00:25:33;;;;;;;15.68;4.63;;;;;;;6.85;93.99;100617.75;5076835;28;20440;-72
2023/03/17 00:27:59;;;;;;;15.43;4.80;;;;;;;6.80;98.23;100615.06;5076509;28;20139;-72
2023/03/17 00:30:26;;;;;;;16.42;4.72;;;;;;;6.76;98.49;100609.75;5076451;28;20032;-73
2023/03/17 00:32:54;;;;;;;17.20;5.00;;;;;;;6.70;100.00;100604.34;5076502;28;20476;-73
2023/03/17 00:35:22;;;;;;;16.50;5.07;;;;;;;6.65;100.00;100609.53;5076320;28;20051;-73
2023/03/17 00:37:51;;;;;;;16.00;5.03;;;;;;;6.67;100.00;100612.19;5076469;28;20031;-72
2023/03/17 00:40:29;;;;;;;15.07;4.70;;;;;;;6.73;100.00;100614.94;5076377;28;20036;-71
2023/03/17 00:42:55;;;;;;;15.10;4.70;;;;;;;6.77;100.00;100615.00;5072674;28;20028;-72
2023/03/17 00:45:23;;;;;;;15.23;4.68;;;;;;;6.82;100.00;100614.22;5076183;28;20032;-72
2023/03/17 00:47:50;;;;;;;15.50;4.53;;;;;;;6.85;100.00;100612.50;5076076;28;20024;-71
2023/03/17 00:50:21;;;;;;;15.93;4.65;;;;;;;6.86;100.00;100603.78;5076199;28;20473;-73
2023/03/17 00:52:48;;;;;;;15.50;4.47;;;;;;;6.85;100.00;100609.88;5076255;28;20029;-74
2023/03/17 00:55:14;;;;;;;15.57;4.80;;;;;;;6.85;100.00;100615.13;5075963;28;20025;-73
2023/03/17 00:57:41;;;;;;;15.15;4.60;;;;;;;6.86;100.00;100601.16;5076027;28;20040;-72
2023/03/17 01:00:18;;;;;;;17.58;4.95;;;;;;;6.82;100.00;100604.56;5076061;28;20063;-70
2023/03/17 01:02:44;;;;;;;16.80;4.60;;;;;;;6.81;100.00;100602.78;5075964;28;20044;-69
2023/03/17 01:05:10;;;;;;;16.48;4.50;;;;;;;6.81;100.00;100605.44;5075754;28;20436;-70
2023/03/17 01:07:37;;;;;;;16.38;4.90;;;;;;;6.78;100.00;100611.50;5076327;28;20051;-67
2023/03/17 01:10:02;;;;;;;16.60;4.80;;;;;;;6.71;100.00;100609.63;5076338;28;20047;-67
2023/03/17 01:12:28;;;;;;;17.83;4.63;;;;;;;6.63;100.00;100609.53;5075762;28;20383;-69
2023/03/17 01:14:53;;;;;;;15.95;4.60;;;;;;;6.58;100.00;100605.94;5076238;28;20035;-80
2023/03/17 01:17:19;;;;;;;15.32;4.50;;;;;;;6.54;100.00;100601.50;5075436;28;20559;-68
2023/03/17 01:19:46;;;;;;;16.35;4.60;;;;;;;6.47;100.00;100599.63;5075473;28;20081;-67
2023/03/17 01:22:12;;;;;;;15.20;4.50;;;;;;;6.38;100.00;100599.47;5075905;28;20056;-69
2023/03/17 01:24:38;;;;;;;17.25;4.95;;;;;;;6.28;100.00;100599.28;5075666;28;20052;-70
2023/03/17 01:27:04;;;;;;;14.95;4.80;;;;;;;6.17;100.00;100595.56;5075862;28;20039;-66
2023/03/17 01:29:29;;;;;;;15.20;4.70;;;;;;;6.14;100.00;100586.78;5075970;28;20028;-78
2023/03/17 01:31:55;;;;;;;16.33;4.60;;;;;;;6.11;100.00;100590.22;5075063;28;20029;-69
2023/03/17 01:34:21;;;;;;;15.05;4.70;;;;;;;6.15;100.00;100593.81;5074979;28;20490;-66
2023/03/17 01:36:47;;;;;;;15.95;4.80;;;;;;;6.15;100.00;100588.56;5076044;28;20078;-66
2023/03/17 01:39:13;;;;;;;16.15;4.80;;;;;;;6.13;100.00;100585.00;5075439;28;20139;-67
2023/03/17 01:41:38;;;;;;;17.95;4.82;;;;;;;6.12;100.00;100573.63;5075412;28;20491;-69
2023/03/17 01:44:06;;;;;;;16.25;4.47;;;;;;;6.09;100.00;100570.94;5075035;28;20064;-70
2023/03/17 01:46:34;;;;;;;16.42;4.80;;;;;;;6.11;100.00;100577.09;5075592;28;20111;-69
2023/03/17 01:49:03;;;;;;;17.95;4.78;;;;;;;6.10;100.00;100584.09;5075069;28;20060;-68
2023/03/17 01:51:34;;;;;;;16.30;4.65;;;;;;;6.09;100.00;100581.44;5075461;28;20023;-67
2023/03/17 01:54:03;;;;;;;16.67;4.70;;;;;;;6.07;100.00;100576.19;5075472;28;20367;-67
2023/03/17 01:56:30;;;;;;;17.40;4.68;;;;;;;6.08;100.00;100569.19;5075363;28;20360;-70
2023/03/17 01:58:58;;;;;;;16.95;4.85;;;;;;;6.03;100.00;100570.81;5074957;28;20051;-68
2023/03/17 02:01:30;;;;;;;14.27;4.40;;;;;;;6.00;100.00;100569.03;5070864;28;20043;-67
2023/03/17 02:03:57;;;;;;;16.98;4.97;;;;;;;5.97;100.00;100554.94;5071720;28;20032;-67
2023/03/17 02:06:23;;;;;;;15.95;4.80;;;;;;;5.89;100.00;100568.78;5070569;28;20048;-69
2023/03/17 02:08:48;;;;;;;17.17;5.00;;;;;;;5.83;100.00;100552.94;5074681;28;20029;-67
2023/03/17 02:11:14;;;;;;;17.30;4.85;;;;;;;5.82;100.00;100556.41;5075318;28;20479;-67
2023/03/17 02:13:40;;;;;;;17.10;5.00;;;;;;;5.79;100.00;100548.47;5074747;28;20043;-67
2023/03/17 02:16:06;;;;;;;18.55;5.00;;;;;;;5.81;100.00;100546.78;5074732;28;20428;-67
2023/03/17 02:18:32;;;;;;;17.83;4.90;;;;;;;5.84;100.00;100540.69;5074570;28;20115;-67
2023/03/17 02:21:27;;;;;;;18.02;5.00;;;;;;;5.89;100.00;100550.44;5074832;28;20035;-67
2023/03/17 02:23:52;;;;;;;18.45;5.22;;;;;;;5.96;100.00;100547.94;5074940;28;20085;-67
2023/03/17 02:26:20;;;;;;;18.13;5.03;;;;;;;5.98;100.00;100541.00;5073755;28;20024;-67
2023/03/17 02:28:46;;;;;;;17.17;5.15;;;;;;;5.97;100.00;100542.75;5074508;28;20040;-67
2023/03/17 02:31:11;;;;;;;17.60;4.78;;;;;;;5.96;100.00;100535.69;5074205;28;20032;-69
2023/03/17 02:33:37;;;;;;;17.30;5.10;;;;;;;5.98;100.00;100530.50;5074659;28;20364;-69
2023/03/17 02:36:03;;;;;;;17.60;5.00;;;;;;;5.99;100.00;100534.91;5074012;28;20029;-67
2023/03/17 02:38:28;;;;;;;18.23;5.05;;;;;;;6.01;100.00;100535.81;5072959;28;20025;-69
2023/03/17 02:40:54;;;;;;;17.42;4.88;;;;;;;6.01;100.00;100522.69;5074548;28;20038;-67
2023/03/17 02:43:20;;;;;;;17.25;4.95;;;;;;;6.00;100.00;100513.94;5073917;28;20548;-79
2023/03/17 02:45:45;;;;;;;17.20;4.70;;;;;;;6.00;100.00;100523.53;5071831;28;20074;-66
2023/03/17 02:48:11;;;;;;;18.00;4.68;;;;;;;5.95;100.00;100523.41;5074322;28;20375;-67
2023/03/17 02:50:37;;;;;;;16.92;4.70;;;;;;;5.93;100.00;100518.16;5074198;28;20032;-67
2023/03/17 02:53:02;;;;;;;17.60;4.65;;;;;;;5.88;100.00;100522.44;5074246;28;20040;-69
2023/03/17 02:55:27;;;;;;;17.48;4.75;;;;;;;5.93;100.00;100517.28;5073975;28;20032;-67
2023/03/17 02:57:53;;;;;;;17.67;5.05;;;;;;;5.94;100.00;100512.06;5073533;28;20073;-67
2023/03/17 03:00:18;;;;;;;17.13;4.70;;;;;;;6.00;100.00;100518.28;5073760;28;20108;-69
2023/03/17 03:02:44;;;;;;;17.65;5.13;;;;;;;6.08;100.00;100521.94;5073674;28;20033;-67
2023/03/17 03:05:09;;;;;;;18.55;5.10;;;;;;;6.15;100.00;100517.69;5073842;28;20075;-67
2023/03/17 03:07:35;;;;;;;17.58;4.70;;;;;;;6.23;100.00;100516.97;5073634;28;20097;-73
2023/03/17 03:10:01;;;;;;;15.95;4.35;;;;;;;6.28;100.00;100525.78;5073568;28;20028;-74
2023/03/17 03:12:27;;;;;;;17.30;4.50;;;;;;;6.32;100.00;100525.81;5073344;28;20031;-70
2023/03/17 03:14:52;;;;;;;17.65;4.65;;;;;;;6.31;100.00;100510.97;5073764;28;20029;-67
2023/03/17 03:17:19;;;;;;;16.35;4.68;;;;;;;6.28;100.00;100517.91;5073428;28;20032;-69
2023/03/17 03:19:44;;;;;;;18.35;4.45;;;;;;;6.26;100.00;100508.22;5073576;28;20032;-72
2023/03/17 03:22:10;;;;;;;16.73;4.47;;;;;;;6.28;100.00;100523.16;5073190;28;20032;-72
2023/03/17 03:24:35;;;;;;;16.58;4.43;;;;;;;6.30;100.00;100530.19;5073088;28;20060;-70
2023/03/17 03:27:01;;;;;;;15.65;4.40;;;;;;;6.30;100.00;100527.56;5073853;28;20074;-66
2023/03/17 03:29:26;;;;;;;15.02;4.40;;;;;;;6.33;100.00;100530.22;5073059;28;20036;-66
2023/03/17 03:31:52;;;;;;;16.45;4.43;;;;;;;6.32;100.00;100526.75;5073031;28;20032;-70
2023/03/17 03:34:17;;;;;;;16.80;4.20;;;;;;;6.30;100.00;100517.94;5073241;28;20032;-79
2023/03/17 03:36:43;;;;;;;16.42;4.32;;;;;;;6.23;100.00;100516.06;5073434;28;20032;-70
2023/03/17 03:39:09;;;;;;;18.70;4.65;;;;;;;6.15;100.00;100529.06;5071915;28;20033;-69
2023/03/17 03:41:34;;;;;;;18.65;4.30;;;;;;;6.13;100.00;100541.28;5073527;28;20029;-69
2023/03/17 03:44:00;;;;;;;16.42;4.43;;;;;;;6.13;100.00;100535.13;5072822;28;20115;-67
2023/03/17 03:46:26;;;;;;;16.30;4.22;;;;;;;6.11;100.00;100538.59;5072795;28;20120;-70
2023/03/17 03:48:53;;;;;;;17.63;4.47;;;;;;;6.05;100.00;100542.88;5072890;28;20098;-67
2023/03/17 03:51:18;;;;;;;17.95;4.45;;;;;;;6.01;100.00;100551.56;5072671;28;20036;-67
2023/03/17 03:53:44;;;;;;;17.05;4.30;;;;;;;5.97;100.00;100547.06;5072974;28;20033;-68
2023/03/17 03:56:09;;;;;;;15.88;4.22;;;;;;;5.86;100.00;100536.38;5072747;28;20044;-67
2023/03/17 03:58:35;;;;;;;17.30;4.70;;;;;;;5.79;100.00;100551.09;5073080;28;20060;-69
2023/03/17 04:01:08;;;;;;;19.35;4.68;;;;;;;5.72;100.00;100563.25;5072937;28;20028;-66
2023/03/17 04:03:35;;;;;;;17.50;4.50;;;;;;;5.65;100.00;100558.72;5072803;28;20024;-70
2023/03/17 04:06:00;;;;;;;17.13;4.60;;;;;;;5.62;100.00;100557.75;5072397;28;20044;-70
2023/03/17 04:08:26;;;;;;;18.90;4.60;;;;;;;5.63;100.00;100554.28;5072563;28;20031;-67
2023/03/17 04:10:51;;;;;;;17.88;4.50;;;;;;;5.72;100.00;100554.47;5073415;28;20103;-68
2023/03/17 04:13:17;;;;;;;17.58;4.45;;;;;;;5.75;100.00;100555.44;5072901;28;20029;-67
2023/03/17 04:15:42;;;;;;;17.65;4.43;;;;;;;5.78;100.00;100549.31;5072586;28;20063;-68
2023/03/17 04:18:08;;;;;;;17.75;4.50;;;;;;;5.81;100.00;100543.25;5072968;28;20039;-68
2023/03/17 04:20:33;;;;;;;18.15;4.60;;;;;;;5.81;100.00;100545.88;5071267;28;20035;-68
2023/03/17 04:22:59;;;;;;;19.00;5.03;;;;;;;5.82;100.00;100551.16;5073081;28;20115;-67
2023/03/17 04:25:25;;;;;;;17.33;4.45;;;;;;;5.82;100.00;100553.78;5069016;28;20379;-68
2023/03/17 04:27:50;;;;;;;20.15;5.03;;;;;;;5.83;100.00;100560.81;5072812;28;20025;-67
2023/03/17 04:30:16;;;;;;;20.52;4.75;;;;;;;5.86;100.00;100553.00;5072974;28;20036;-67
2023/03/17 04:32:42;;;;;;;17.77;4.47;;;;;;;5.90;100.00;100549.56;5072715;28;20532;-69
2023/03/17 04:35:21;;;;;;;19.25;4.70;;;;;;;5.92;100.00;100558.34;5072237;28;20063;-67
2023/03/17 04:37:47;;;;;;;18.60;4.60;;;;;;;5.89;100.00;100547.81;5072166;28;20052;-67
2023/03/17 04:40:13;;;;;;;19.75;4.70;;;;;;;5.89;100.00;100553.06;5072534;28;20094;-68
2023/03/17 04:42:39;;;;;;;18.92;4.70;;;;;;;5.90;100.00;100553.94;5072281;28;20406;-67
2023/03/17 04:45:05;;;;;;;18.77;4.70;;;;;;;5.88;100.00;100556.56;5072227;28;20032;-68
2023/03/17 04:47:31;;;;;;;19.17;4.72;;;;;;;5.89;100.00;100557.44;5072399;28;20033;-67
2023/03/17 04:49:57;;;;;;;21.10;5.00;;;;;;;5.86;100.00;100560.00;5072203;28;20025;-68
2023/03/17 04:52:22;;;;;;;19.92;4.88;;;;;;;5.81;100.00;100544.16;5072345;28;20036;-67
2023/03/17 04:54:48;;;;;;;19.38;4.85;;;;;;;5.81;100.00;100549.41;5072512;28;20107;-69
2023/03/17 04:57:13;;;;;;;18.02;4.70;;;;;;;5.79;100.00;100550.25;5072338;28;20111;-67
2023/03/17 04:59:38;;;;;;;19.42;4.68;;;;;;;5.80;100.00;100547.63;5072309;28;20082;-67
2023/03/17 05:02:04;;;;;;;19.00;5.07;;;;;;;5.76;100.00;100545.81;5072068;28;20060;-70
2023/03/17 05:04:29;;;;;;;19.42;4.72;;;;;;;5.83;100.00;100542.44;5072946;28;20379;-71
2023/03/17 05:06:57;;;;;;;20.45;4.90;;;;;;;5.79;100.00;100539.75;5068110;28;20121;-66
2023/03/17 05:09:23;;;;;;;18.60;4.63;;;;;;;5.80;100.00;100529.28;5075519;28;20116;-70
2023/03/17 05:11:48;;;;;;;17.48;4.38;;;;;;;5.80;100.00;100526.66;5074372;28;20399;-66
2023/03/17 05:14:14;;;;;;;17.95;4.72;;;;;;;5.81;100.00;100527.53;5075818;28;20029;-72
2023/03/17 05:16:39;;;;;;;18.98;4.90;;;;;;;5.84;100.00;100528.47;5075421;28;20040;-67
2023/03/17 05:19:05;;;;;;;18.25;4.70;;;;;;;5.88;100.00;100527.69;5075912;28;20086;-66
2023/03/17 05:21:31;;;;;;;17.38;4.65;;;;;;;5.87;100.00;100541.66;5075306;28;20060;-68
2023/03/17 05:23:56;;;;;;;17.63;4.30;;;;;;;5.94;100.00;100534.75;5075855;28;20025;-66
2023/03/17 05:26:22;;;;;;;20.33;5.07;;;;;;;5.98;100.00;100541.88;5075493;28;20459;-77
2023/03/17 05:28:47;;;;;;;17.50;4.65;;;;;;;6.00;100.00;100547.16;5075503;28;20028;-68
2023/03/17 05:31:12;;;;;;;19.80;4.63;;;;;;;6.06;100.00;100549.91;5075738;28;20025;-68
2023/03/17 05:33:38;;;;;;;17.67;4.95;;;;;;;6.08;100.00;100550.81;5075971;28;20021;-74
2023/03/17 05:36:04;;;;;;;18.70;4.90;;;;;;;6.07;100.00;100546.41;5075361;28;20386;-75
2023/03/17 05:38:29;;;;;;;19.33;5.10;;;;;;;6.06;100.00;100544.66;5075254;28;20520;-79
2023/03/17 05:40:55;;;;;;;19.02;5.05;;;;;;;6.04;100.00;100559.47;5075279;28;20547;-68
2023/03/17 05:43:20;;;;;;;17.95;4.85;;;;;;;6.00;100.00;100548.06;5075315;28;20035;-67
2023/03/17 05:45:46;;;;;;;17.95;5.07;;;;;;;6.00;100.00;100545.44;5075334;28;20498;-69
2023/03/17 05:48:12;;;;;;;20.27;5.10;;;;;;;5.97;100.00;100541.81;5075454;28;20020;-66
2023/03/17 05:50:38;;;;;;;20.02;5.25;;;;;;;5.93;100.00;100533.88;5075202;28;20032;-67
2023/03/17 05:53:05;;;;;;;19.58;5.00;;;;;;;5.93;100.00;100538.25;5074973;28;20482;-68
2023/03/17 05:55:30;;;;;;;18.00;5.03;;;;;;;5.85;100.00;100545.09;5075157;28;20475;-68
2023/03/17 05:57:56;;;;;;;20.35;4.93;;;;;;;5.86;100.00;100539.00;5074802;28;20035;-68
2023/03/17 06:00:22;;;;;;;18.40;5.05;;;;;;;5.83;100.00;100541.56;5075121;28;20433;-67
2023/03/17 06:02:47;;;;;;;18.85;4.93;;;;;;;5.85;100.00;100535.47;5075656;28;20021;-67
2023/03/17 06:05:12;;;;;;;19.38;5.07;;;;;;;5.93;100.00;100536.50;5074884;28;20029;-67
2023/03/17 06:07:38;;;;;;;19.40;4.90;;;;;;;5.96;100.00;100537.44;5075075;28;20368;-66
2023/03/17 06:10:04;;;;;;;20.05;5.00;;;;;;;5.97;100.00;100540.13;5074966;28;20040;-71
2023/03/17 06:12:29;;;;;;;19.60;4.85;;;;;;;5.97;100.00;100539.19;5074952;28;20570;-68
2023/03/17 06:14:55;;;;;;;20.92;5.20;;;;;;;5.91;100.00;100538.25;5074692;28;20509;-68
2023/03/17 06:17:20;;;;;;;18.52;4.88;;;;;;;5.91;100.00;100540.88;5075230;28;20075;-68
2023/03/17 06:19:45;;;;;;;20.33;5.18;;;;;;;5.97;100.00;100544.44;5074553;28;20028;-67
2023/03/17 06:22:11;;;;;;;18.90;4.65;;;;;;;6.01;100.00;100539.31;5074617;28;20032;-70
2023/03/17 06:24:36;;;;;;;18.27;4.65;;;;;;;6.08;100.00;100549.06;5074676;28;20036;-67
2023/03/17 06:27:02;;;;;;;17.88;4.70;;;;;;;6.15;100.00;100549.19;5074558;28;20071;-67
2023/03/17 06:29:28;;;;;;;18.52;4.63;;;;;;;6.22;100.00;100549.31;5074842;28;20486;-69
2023/03/17 06:31:53;;;;;;;19.45;4.88;;;;;;;6.28;100.00;100552.03;5073752;28;20127;-68
2023/03/17 06:34:21;;;;;;;18.23;4.53;;;;;;;6.34;100.00;100561.75;5074260;28;20531;-68
2023/03/17 06:36:47;;;;;;;19.92;5.50;;;;;;;6.38;100.00;100552.22;5074252;28;20115;-69
2023/03/17 06:39:12;;;;;;;19.10;5.20;;;;;;;6.43;100.00;100553.16;5069304;28;20108;-67
2023/03/17 06:41:38;;;;;;;18.15;4.82;;;;;;;6.49;100.00;100547.13;5068354;28;20040;-67
2023/03/17 06:44:04;;;;;;;17.02;4.60;;;;;;;6.55;100.00;100548.13;5073795;28;20028;-68
2023/03/17 06:46:30;;;;;;;17.75;4.60;;;;;;;6.63;100.00;100543.84;5067625;28;20063;-68
2023/03/17 06:48:56;;;;;;;19.35;4.90;;;;;;;6.67;100.00;100539.53;5067597;28;20494;-76
2023/03/17 06:51:21;;;;;;;17.35;4.93;;;;;;;6.78;100.00;100543.19;5068484;28;20036;-72
2023/03/17 06:53:47;;;;;;;17.75;4.97;;;;;;;6.88;100.00;100548.59;5066558;28;20029;-77
2023/03/17 06:56:12;;;;;;;19.88;4.93;;;;;;;6.95;100.00;100545.22;5069794;28;20032;-75
2023/03/17 06:58:38;;;;;;;18.38;4.55;;;;;;;7.04;100.00;100552.34;5072573;28;20033;-74
2023/03/17 07:01:04;;;;;;;19.55;5.00;;;;;;;7.13;100.00;100549.81;5068869;28;20032;-73
2023/03/17 07:03:30;;;;;;;18.40;4.30;;;;;;;7.21;100.00;100556.09;5065954;28;20025;-75
2023/03/17 07:05:55;;;;;;;17.67;4.82;;;;;;;7.29;100.00;100556.19;5072491;28;20515;-75
2023/03/17 07:08:21;;;;;;;19.00;4.70;;;;;;;7.37;100.00;100556.28;5065699;28;20033;-73
2023/03/17 07:10:46;;;;;;;17.45;4.40;;;;;;;7.46;100.00;100556.41;5069108;28;20377;-72
2023/03/17 07:13:12;;;;;;;18.58;4.80;;;;;;;7.54;100.00;100552.09;5067853;28;20037;-75
2023/03/17 07:15:37;;;;;;;17.17;4.63;;;;;;;7.61;100.00;100551.31;5067914;28;20043;-76
2023/03/17 07:18:05;;;;;;;18.77;4.70;;;;;;;7.70;100.00;100554.94;5069221;28;20031;-75
2023/03/17 07:20:30;;;;;;;17.77;4.60;;;;;;;7.77;100.00;100551.50;5078793;28;20025;-75
2023/03/17 07:22:56;;;;;;;17.77;4.70;;;;;;;7.83;100.00;100555.09;5064582;28;20029;-75
2023/03/17 07:25:22;;;;;;;18.80;4.60;;;;;;;7.92;100.00;100570.09;5067820;28;20036;-67
2023/03/17 07:27:48;;;;;;;16.77;4.55;;;;;;;8.00;97.45;100555.25;5070508;28;20028;-67
2023/03/17 07:30:17;;;;;;;19.15;4.82;;;;;;;8.09;94.09;100548.31;5076358;28;20508;-68
2023/03/17 07:32:43;;;;;;;17.38;4.70;;;;;;;8.18;94.43;100548.41;5069176;28;20032;-71
2023/03/17 07:35:08;;;;;;;17.80;4.75;;;;;;;8.24;93.91;100543.19;5070346;28;20475;-69
2023/03/17 07:37:34;;;;;;;17.05;4.68;;;;;;;8.31;91.58;100528.34;5066505;28;20072;-68
2023/03/17 07:39:59;;;;;;;17.60;4.30;;;;;;;8.36;92.36;100535.41;5076265;28;20032;-67
2023/03/17 07:42:27;;;;;;;17.65;4.60;;;;;;;8.41;90.05;100532.81;5065744;28;20020;-67
2023/03/17 07:44:53;;;;;;;19.58;4.50;;;;;;;8.48;87.09;100529.38;5066363;28;20475;-73
2023/03/17 07:47:18;;;;;;;19.73;4.68;;;;;;;8.55;87.20;100532.97;5068867;28;20029;-72
2023/03/17 07:49:44;;;;;;;17.38;4.82;;;;;;;8.59;87.31;100532.13;5064525;28;20483;-73
2023/03/17 07:52:10;;;;;;;14.82;4.35;;;;;;;8.67;84.94;100540.06;5067501;28;20035;-67
2023/03/17 07:54:36;;;;;;;18.17;4.70;;;;;;;8.78;85.56;100541.03;5070156;28;20028;-71
2023/03/17 07:57:02;;;;;;;17.00;4.47;;;;;;;8.85;81.59;100534.94;5068310;28;20036;-72
2023/03/17 07:59:27;;;;;;;17.75;4.70;;;;;;;8.95;82.75;100540.25;5073374;28;20028;-74
2023/03/17 08:01:53;;;;;;;17.85;4.50;;;;;;;9.00;82.32;100552.59;5064245;28;20031;-71
2023/03/17 08:04:18;;;;;;;17.90;4.78;;;;;;;9.07;80.21;100559.69;5064686;28;20035;-66
2023/03/17 08:06:45;;;;;;;17.60;4.60;;;;;;;9.14;79.29;100546.53;5070372;28;20072;-71
2023/03/17 08:09:11;;;;;;;17.83;4.75;;;;;;;9.22;78.44;100547.44;5068027;28;20029;-71
2023/03/17 08:11:37;;;;;;;18.55;4.75;;;;;;;9.31;77.31;100541.34;5076774;28;20024;-71
2023/03/17 08:14:06;;;;;;;17.42;4.60;;;;;;;9.40;74.57;100547.53;5072118;28;20032;-71
2023/03/17 08:16:32;;;;;;;19.00;4.97;;;;;;;9.51;77.57;100547.59;5066216;28;20041;-69
2023/03/17 08:18:57;;;;;;;16.35;4.38;;;;;;;9.71;75.11;100549.41;5064929;28;20038;-67
2023/03/17 08:21:26;;;;;;;16.55;4.38;;;;;;;9.81;72.21;100560.88;5061162;28;20020;-66
2023/03/17 08:23:52;;;;;;;19.10;4.40;;;;;;;9.93;69.44;100555.63;5072715;28;20043;-65
2023/03/17 08:26:19;;;;;;;16.00;4.40;;;;;;;9.99;69.37;100555.66;5070605;28;20086;-67
2023/03/17 08:28:45;;;;;;;18.50;4.50;;;;;;;10.08;69.47;100547.75;5069216;28;20036;-72
2023/03/17 08:31:17;;;;;;;18.08;4.70;;;;;;;10.19;68.39;100552.16;5067625;28;20021;-70
2023/03/17 08:33:45;;;;;;;17.63;4.55;;;;;;;10.27;68.70;100547.78;5069202;28;20028;-71
2023/03/17 08:36:11;;;;;;;15.98;4.40;;;;;;;10.43;68.09;100544.28;5070340;28;20493;-71
2023/03/17 08:38:39;;;;;;;16.52;4.40;;;;;;;10.54;65.26;100541.66;5066325;28;20115;-71
2023/03/17 08:41:07;;;;;;;18.58;4.68;;;;;;;10.61;66.60;100537.22;5065711;28;20146;-71
2023/03/17 08:43:34;;;;;;;13.85;4.03;;;;;;;10.62;65.51;100526.66;5068998;28;20048;-71
2023/03/17 08:46:06;;;;;;;16.90;4.15;;;;;;;10.69;64.54;100518.72;5070971;28;20025;-72
2023/03/17 08:48:34;;;;;;;17.02;4.40;;;;;;;10.81;63.58;100534.56;5083199;28;20029;-68
2023/03/17 08:51:00;;;;;;;17.05;4.60;;;;;;;10.94;62.93;100543.38;5074712;28;20482;-68
2023/03/17 08:53:26;;;;;;;17.33;4.57;;;;;;;10.99;63.69;100552.16;5072015;28;20036;-65
2023/03/17 08:55:54;;;;;;;17.30;4.40;;;;;;;11.22;64.12;100551.22;5075052;28;20025;-73
2023/03/17 08:58:19;;;;;;;17.40;4.40;;;;;;;11.34;62.86;100548.53;5069124;28;20020;-66
2023/03/17 09:00:45;;;;;;;15.57;4.30;;;;;;;11.44;61.90;100544.09;5073833;28;20032;-67
2023/03/17 09:03:11;;;;;;;16.02;4.40;;;;;;;11.56;60.97;100537.84;5076201;28;20029;-66
2023/03/17 09:05:36;;;;;;;17.73;4.60;;;;;;;11.60;60.03;100532.53;5075884;28;20057;-71
2023/03/17 09:08:02;;;;;;;16.98;4.80;;;;;;;11.66;60.11;100534.28;5076308;28;20086;-69
2023/03/17 09:10:27;;;;;;;13.98;4.30;;;;;;;11.74;61.36;100536.91;5075848;28;20034;-64
2023/03/17 09:12:53;;;;;;;14.65;4.30;;;;;;;11.76;60.54;100535.13;5075777;28;20430;-68
2023/03/17 09:15:19;;;;;;;17.27;4.53;;;;;;;11.77;59.55;100534.25;5075985;28;20390;-68
2023/03/17 09:17:44;;;;;;;16.45;4.43;;;;;;;11.72;60.98;100543.97;5071941;28;20086;-70
2023/03/17 09:20:10;;;;;;;17.10;4.55;;;;;;;11.69;60.68;100536.91;5069498;28;20020;-67
2023/03/17 09:22:36;;;;;;;17.67;4.50;;;;;;;11.73;62.33;100528.06;5069453;28;20033;-67
2023/03/17 09:25:02;;;;;;;14.70;4.50;;;;;;;11.90;62.35;100538.56;5072838;28;20080;-68
2023/03/17 09:27:27;;;;;;;18.80;4.57;;;;;;;12.07;61.66;100538.47;5074639;28;20039;-66
2023/03/17 09:29:53;;;;;;;16.67;4.80;;;;;;;12.19;60.26;100535.75;5067413;28;20029;-66
2023/03/17 09:32:18;;;;;;;18.48;4.90;;;;;;;12.27;59.69;100534.81;5071213;28;20135;-66
2023/03/17 09:34:44;;;;;;;17.05;4.53;;;;;;;12.35;60.84;100530.34;5073229;28;20398;-66
2023/03/17 09:37:10;;;;;;;15.48;4.60;;;;;;;12.35;59.84;100523.28;5079948;28;20040;-68
2023/03/17 09:39:35;;;;;;;15.32;4.30;;;;;;;12.44;59.75;100518.81;5068987;28;20415;-66
2023/03/17 09:42:15;;;;;;;18.17;4.65;;;;;;;12.45;59.89;100517.88;5071451;28;20372;-66
2023/03/17 09:44:46;;;;;;;14.90;4.50;;;;;;;12.39;60.64;100510.84;5070005;28;20029;-67
2023/03/17 09:47:38;;;;;;;16.40;4.60;;;;;;;12.41;60.61;100526.75;5072297;28;20035;-66
2023/03/17 09:50:10;;;;;;;16.88;4.47;;;;;;;12.34;61.30;100523.28;5066464;28;20044;-68
2023/03/17 09:52:36;;;;;;;;;;;;;;;12.51;60.92;100520.50;5068543;28;20063;-66
2023/03/17 09:55:07;;;;;;;18.00;4.80;;;;;;;12.65;60.42;100528.31;5069759;28;20276;-68
2023/03/17 09:57:35;;;;;;;16.20;4.40;;;;;;;12.68;59.18;100530.94;5074638;28;20105;-67
2023/03/17 10:00:25;;;;;;;15.82;4.28;;;;;;;12.50;59.65;100546.13;5075203;28;20020;-73
2023/03/17 10:02:51;;;;;;;15.93;4.45;;;;;;;12.36;60.67;100537.41;5072893;28;20057;-66
2023/03/17 10:05:20;;;;;;;14.98;4.47;;;;;;;12.36;60.13;100542.69;5063211;28;20506;-67
2023/03/17 10:08:08;;;;;;;17.42;4.60;;;;;;;12.34;61.83;100545.38;5065111;28;20122;-67
2023/03/17 10:10:48;;;;;;;16.80;4.90;;;;;;;12.38;60.73;100541.81;5064695;28;20108;-70
2023/03/17 10:13:41;;;;;;;17.38;4.72;;;;;;;12.44;61.77;100546.19;5067136;28;20032;-73
2023/03/17 10:16:16;;;;;;;16.08;4.60;;;;;;;12.49;60.94;100544.34;5072466;28;20048;-73
2023/03/17 10:18:50;;;;;;;17.92;5.00;;;;;;;12.54;61.87;100571.72;5076199;28;20020;-73
2023/03/17 10:21:24;;;;;;;16.02;4.85;;;;;;;12.64;62.28;100582.25;5073954;28;20099;-73
2023/03/17 10:23:52;;;;;;;19.17;4.50;;;;;;;12.85;60.16;100568.78;5076821;28;20052;-73
2023/03/17 10:26:29;;;;;;;17.83;4.45;;;;;;;13.18;60.43;100566.72;5065855;28;20506;-74
2023/03/17 10:28:55;;;;;;;15.15;4.25;;;;;;;13.76;59.70;100586.41;5071521;28;20059;-74
2023/03/17 10:31:31;;;;;;;17.13;4.50;;;;;;;13.91;58.81;100566.72;5067498;28;20486;-74
2023/03/17 10:34:11;;;;;;;15.65;4.30;;;;;;;14.16;56.49;100584.97;5070225;28;20030;-74
2023/03/17 10:36:43;;;;;;;17.45;4.70;;;;;;;14.32;57.55;100574.13;5075437;28;20037;-74
2023/03/17 10:39:17;;;;;;;17.80;5.07;;;;;;;14.45;57.16;100567.72;5075277;28;20425;-73
2023/03/17 10:41:54;;;;;;;19.70;4.57;;;;;;;14.64;56.79;100576.31;5075122;28;20021;-74
2023/03/17 10:44:42;;;;;;;16.45;4.45;;;;;;;15.32;56.08;100564.44;5075079;28;20059;-74
2023/03/17 10:47:21;;;;;;;14.82;4.22;;;;;;;16.52;53.08;100564.47;5046517;28;20032;-73
2023/03/17 10:49:47;;;;;;;16.85;4.47;;;;;;;16.90;51.74;100564.44;5073959;28;20036;-73
2023/03/17 10:52:19;;;;;;;15.23;4.10;;;;;;;17.41;48.59;100568.41;5073998;28;20074;-73
2023/03/17 10:54:50;;;;;;;17.27;4.32;;;;;;;17.62;47.63;100571.38;5074109;28;20348;-74
2023/03/17 10:57:17;;;;;;;14.45;4.15;;;;;;;17.70;46.31;100570.22;5074091;28;20379;-74
2023/03/17 10:59:49;;;;;;;14.35;4.03;;;;;;;17.57;46.46;100568.84;5074069;28;20033;-74
2023/03/17 11:02:26;;;;;;;16.42;4.30;;;;;;;17.29;47.12;100561.59;5073387;28;20029;-74
2023/03/17 11:05:02;;;;;;;13.05;4.20;;;;;;;16.68;47.85;100554.28;5073065;28;20032;-74
2023/03/17 11:07:37;;;;;;;16.25;4.30;;;;;;;16.86;49.21;100552.94;5073042;28;20048;-74
2023/03/17 11:10:13;;;;;;;14.18;4.10;;;;;;;17.59;47.54;100556.28;5069909;28;20025;-74
2023/03/17 11:12:40;;;;;;;15.88;4.40;;;;;;;18.23;43.85;100547.25;5070841;28;20493;-73
2023/03/17 11:15:12;;;;;;;16.95;4.43;;;;;;;18.85;44.59;100550.56;5073405;28;20410;-74
2023/03/17 11:17:40;;;;;;;15.13;4.28;;;;;;;19.17;42.32;100547.66;5073132;28;20119;-74
2023/03/17 11:20:17;;;;;;;15.13;4.13;;;;;;;19.82;42.10;100537.22;5073715;28;20059;-74